createdAt,value
2023-03-22T00:00:06.587Z,4.13
2023-03-22T00:02:33.699Z,4.10
2023-03-22T00:05:01.241Z,3.60
2023-03-22T00:07:28.484Z,4.05
2023-03-22T00:09:55.943Z,4.50
2023-03-22T00:12:23.242Z,4.25
2023-03-22T00:14:50.535Z,4.00
2023-03-22T00:17:18.498Z,5.35
2023-03-22T00:19:46.567Z,4.38
2023-03-22T00:22:14.749Z,3.95
2023-03-22T00:24:42.004Z,4.13
2023-03-22T00:27:09.362Z,4.53
2023-03-22T00:29:36.696Z,4.97
2023-03-22T00:32:04.387Z,3.95
2023-03-22T00:34:33.001Z,4.03
2023-03-22T00:37:00.572Z,3.90
2023-03-22T00:39:27.860Z,4.03
2023-03-22T00:41:55.214Z,3.65
2023-03-22T00:44:22.463Z,3.90
2023-03-22T00:46:49.771Z,4.25
2023-03-22T00:49:17.127Z,3.15
2023-03-22T00:51:44.586Z,3.60
2023-03-22T00:54:11.997Z,3.35
2023-03-22T00:56:39.591Z,3.22
2023-03-22T00:59:14.711Z,3.03
2023-03-22T01:01:43.730Z,3.47
2023-03-22T01:04:15.466Z,2.92
2023-03-22T01:06:42.908Z,2.63
2023-03-22T01:09:14.811Z,3.10
2023-03-22T01:11:43.298Z,2.72
2023-03-22T01:14:13.809Z,2.60
2023-03-22T01:16:41.399Z,2.80
2023-03-22T01:19:09.342Z,3.15
2023-03-22T01:21:37.067Z,2.80
2023-03-22T01:24:04.576Z,2.45
2023-03-22T01:26:32.002Z,3.22
2023-03-22T01:28:59.338Z,2.88
2023-03-22T01:31:27.398Z,3.20
2023-03-22T01:33:54.795Z,3.03
2023-03-22T01:36:23.380Z,2.70
2023-03-22T01:38:50.819Z,2.83
2023-03-22T01:41:18.681Z,2.88
2023-03-22T01:44:11.087Z,2.67
2023-03-22T01:46:39.803Z,2.88
2023-03-22T01:49:09.954Z,3.30
2023-03-22T01:51:37.591Z,2.95
2023-03-22T01:54:18.300Z,2.60
2023-03-22T01:56:45.991Z,3.00
2023-03-22T01:59:20.971Z,2.78
2023-03-22T02:02:07.648Z,2.85
2023-03-22T02:04:39.080Z,2.63
2023-03-22T02:07:15.591Z,3.03
2023-03-22T02:09:46.529Z,2.83
2023-03-22T02:12:21.103Z,2.47
2023-03-22T02:14:58.802Z,3.83
2023-03-22T02:18:19.274Z,2.75
2023-03-22T02:21:19.160Z,3.17
2023-03-22T02:23:50.736Z,2.42
2023-03-22T02:26:41.622Z,2.95
2023-03-22T02:29:26.600Z,2.05
2023-03-22T02:32:12.646Z,3.20
2023-03-22T02:34:54.082Z,2.42
2023-03-22T02:38:12.770Z,2.95
2023-03-22T02:41:01.658Z,2.80
2023-03-22T02:43:38.598Z,3.42
2023-03-22T02:46:14.737Z,2.85
2023-03-22T02:49:07.908Z,2.45
2023-03-22T02:51:44.133Z,2.80
2023-03-22T02:54:18.525Z,2.63
2023-03-22T02:56:53.981Z,2.70
2023-03-22T02:59:22.956Z,2.90
2023-03-22T03:01:56.388Z,3.10
2023-03-22T03:04:33.522Z,2.80
2023-03-22T03:07:09.439Z,2.38
2023-03-22T03:09:38.385Z,2.80
2023-03-22T03:12:18.580Z,3.08
2023-03-22T03:14:45.856Z,2.75
2023-03-22T03:18:06.296Z,3.78
2023-03-22T03:20:46.597Z,3.28
2023-03-22T03:23:40.523Z,2.70
2023-03-22T03:26:23.867Z,3.08
2023-03-22T03:28:58.738Z,2.58
2023-03-22T03:31:47.374Z,2.67
2023-03-22T03:34:19.588Z,3.10
2023-03-22T03:36:58.566Z,2.60
2023-03-22T03:39:28.966Z,2.80
2023-03-22T03:41:56.920Z,3.25
2023-03-22T03:44:24.665Z,2.80
2023-03-22T03:46:52.972Z,3.03
2023-03-22T03:49:22.302Z,2.97
2023-03-22T03:51:52.557Z,3.20
2023-03-22T03:56:47.865Z,3.42
2023-03-22T03:59:16.552Z,2.30
2023-03-22T04:01:50.317Z,2.63
2023-03-22T04:04:27.125Z,2.33
2023-03-22T04:09:33.926Z,3.00
2023-03-22T04:12:14.746Z,2.80
2023-03-22T04:14:45.807Z,2.50
2023-03-22T04:17:21.902Z,2.97
2023-03-22T04:19:49.481Z,2.92
2023-03-22T04:22:18.402Z,2.47
2023-03-22T04:24:50.077Z,2.33
2023-03-22T04:27:21.241Z,2.55
2023-03-22T04:29:58.055Z,2.38
2023-03-22T04:32:46.173Z,2.47
2023-03-22T04:35:14.300Z,2.47
2023-03-22T04:37:44.436Z,2.30
2023-03-22T04:40:20.961Z,2.70
2023-03-22T04:43:09.916Z,2.22
2023-03-22T04:46:01.929Z,2.22
2023-03-22T04:48:37.939Z,2.05
2023-03-22T04:51:06.804Z,2.17
2023-03-22T04:53:39.900Z,2.50
2023-03-22T04:56:11.304Z,2.60
2023-03-22T05:01:11.958Z,1.98
2023-03-22T05:03:43.044Z,2.13
2023-03-22T05:06:10.509Z,2.60
2023-03-22T05:08:56.593Z,2.80
2023-03-22T05:11:27.651Z,3.25
2023-03-22T05:14:13.646Z,2.60
2023-03-22T05:16:42.124Z,2.88
2023-03-22T05:19:14.140Z,2.45
2023-03-22T05:21:45.178Z,2.40
2023-03-22T05:24:12.541Z,2.65
2023-03-22T05:26:42.464Z,2.92
2023-03-22T05:31:51.523Z,2.22
2023-03-22T05:34:20.348Z,2.50
2023-03-22T05:36:47.927Z,2.38
2023-03-22T05:39:22.882Z,2.80
2023-03-22T05:41:51.134Z,2.57
2023-03-22T05:44:18.535Z,2.53
2023-03-22T05:46:56.072Z,2.95
2023-03-22T05:49:56.481Z,3.20
2023-03-22T05:52:26.597Z,2.95
2023-03-22T05:55:14.107Z,2.78
2023-03-22T05:57:41.638Z,3.75
2023-03-22T06:00:16.399Z,2.53
2023-03-22T06:03:05.430Z,3.17
2023-03-22T06:05:38.973Z,3.63
2023-03-22T06:08:07.991Z,2.60
2023-03-22T06:10:35.417Z,3.13
2023-03-22T06:13:02.906Z,3.17
2023-03-22T06:15:33.147Z,3.78
2023-03-22T06:18:06.700Z,3.55
2023-03-22T06:20:39.755Z,4.05
2023-03-22T06:23:16.274Z,3.72
2023-03-22T06:25:46.083Z,4.00
2023-03-22T06:28:13.801Z,3.63
2023-03-22T06:30:50.069Z,5.03
2023-03-22T06:35:53.009Z,4.10
2023-03-22T06:38:29.453Z,5.78
2023-03-22T06:40:56.818Z,5.50
2023-03-22T06:43:24.296Z,4.22
2023-03-22T06:46:01.778Z,4.63
2023-03-22T06:48:36.203Z,3.97
2023-03-22T06:51:09.860Z,3.92
2023-03-22T06:53:38.249Z,4.00
2023-03-22T06:56:06.185Z,4.18
2023-03-22T06:58:44.378Z,3.70
2023-03-22T07:01:11.789Z,4.28
2023-03-22T07:03:39.224Z,3.45
2023-03-22T07:06:12.644Z,3.75
2023-03-22T07:08:43.278Z,4.07
2023-03-22T07:11:13.116Z,3.78
2023-03-22T07:13:41.302Z,3.63
2023-03-22T07:16:13.029Z,4.35
2023-03-22T07:18:48.482Z,4.60
2023-03-22T07:21:16.258Z,4.00
2023-03-22T07:23:48.063Z,4.20
2023-03-22T07:26:17.931Z,3.35
2023-03-22T07:31:16.142Z,3.63
2023-03-22T07:33:52.411Z,3.47
2023-03-22T07:36:23.973Z,3.67
2023-03-22T07:38:52.003Z,4.18
2023-03-22T07:41:27.125Z,4.22
2023-03-22T07:44:17.327Z,4.63
2023-03-22T07:46:52.674Z,3.80
2023-03-22T07:49:23.599Z,3.97
2023-03-22T07:52:13.485Z,4.53
2023-03-22T07:54:41.255Z,3.90
2023-03-22T07:57:09.796Z,3.78
2023-03-22T07:59:52.667Z,3.33
2023-03-22T08:02:20.075Z,3.88
2023-03-22T08:04:55.109Z,3.67
2023-03-22T08:07:32.446Z,3.78
2023-03-22T08:09:59.897Z,3.13
2023-03-22T08:12:28.067Z,3.67
2023-03-22T08:15:04.719Z,3.25
2023-03-22T08:17:33.936Z,3.38
2023-03-22T08:20:01.481Z,4.05
2023-03-22T08:22:44.334Z,3.80
2023-03-22T08:25:26.765Z,3.55
2023-03-22T08:28:00.122Z,3.92
2023-03-22T08:30:28.272Z,3.10
2023-03-22T08:32:56.080Z,3.13
2023-03-22T08:35:23.708Z,3.03
2023-03-22T08:37:57.731Z,2.70
2023-03-22T08:40:31.891Z,3.53
2023-03-22T08:43:01.906Z,4.32
2023-03-22T08:45:30.642Z,3.58
2023-03-22T08:48:08.895Z,3.30
2023-03-22T08:50:54.328Z,3.83
2023-03-22T08:53:29.719Z,4.13
2023-03-22T08:56:16.552Z,4.00
2023-03-22T08:58:58.165Z,3.75
2023-03-22T09:01:56.843Z,4.60
2023-03-22T09:04:24.241Z,5.13
2023-03-22T09:06:51.714Z,5.07
2023-03-22T09:09:19.117Z,4.43
2023-03-22T09:11:49.929Z,3.97
2023-03-22T09:14:17.287Z,3.70
2023-03-22T09:16:47.772Z,3.70
2023-03-22T09:19:15.438Z,3.83
2023-03-22T09:21:42.843Z,3.47
2023-03-22T09:24:17.216Z,4.10
2023-03-22T09:26:50.481Z,4.13
2023-03-22T09:29:19.591Z,4.20
2023-03-22T09:31:48.980Z,4.53
2023-03-22T09:34:32.021Z,3.65
2023-03-22T09:37:02.457Z,3.40
2023-03-22T09:39:38.924Z,4.45
2023-03-22T09:42:38.728Z,4.00
2023-03-22T09:45:16.165Z,5.90
2023-03-22T09:47:47.153Z,4.63
2023-03-22T09:50:20.149Z,3.85
2023-03-22T09:52:48.370Z,4.22
2023-03-22T09:55:22.644Z,4.25
2023-03-22T09:58:06.419Z,4.10
2023-03-22T10:00:44.202Z,4.25
2023-03-22T10:03:20.998Z,8.38
2023-03-22T10:05:53.391Z,4.03
2023-03-22T10:08:50.766Z,4.13
2023-03-22T10:11:26.128Z,4.32
2023-03-22T10:14:04.120Z,4.90
2023-03-22T10:16:33.866Z,3.78
2023-03-22T10:19:27.023Z,4.25
2023-03-22T10:21:56.579Z,4.38
2023-03-22T10:24:27.724Z,4.20
2023-03-22T10:26:55.376Z,5.22
2023-03-22T10:29:33.093Z,3.75
2023-03-22T10:32:13.629Z,4.72
2023-03-22T10:34:41.447Z,4.60
2023-03-22T10:37:13.065Z,5.32
2023-03-22T10:39:44.592Z,5.32
2023-03-22T10:42:16.004Z,5.05
2023-03-22T10:44:48.350Z,4.93
2023-03-22T10:47:19.281Z,5.22
2023-03-22T10:49:51.528Z,5.07
2023-03-22T10:52:31.268Z,7.85
2023-03-22T10:55:02.998Z,4.53
2023-03-22T10:57:31.771Z,3.97
2023-03-22T10:59:59.271Z,4.32
2023-03-22T11:02:32.180Z,4.75
2023-03-22T11:05:01.930Z,4.85
2023-03-22T11:07:36.714Z,4.35
2023-03-22T11:10:10.065Z,4.20
2023-03-22T11:13:09.713Z,4.50
2023-03-22T11:15:40.232Z,5.50
2023-03-22T11:18:12.621Z,6.00
2023-03-22T11:20:42.208Z,5.57
2023-03-22T11:23:42.111Z,6.15
2023-03-22T11:26:12.450Z,8.95
2023-03-22T11:28:47.082Z,21.45
2023-03-22T11:31:16.996Z,26.73
2023-03-22T11:34:01.278Z,16.80
2023-03-22T11:36:29.629Z,10.35
2023-03-22T11:39:02.114Z,12.90
2023-03-22T11:41:31.345Z,10.27
2023-03-22T11:44:02.124Z,7.20
2023-03-22T11:46:30.069Z,6.78
2023-03-22T11:49:01.323Z,6.45
2023-03-22T11:51:33.351Z,5.72
2023-03-22T11:54:07.952Z,9.13
2023-03-22T11:56:40.564Z,8.15
2023-03-22T11:59:16.737Z,8.52
2023-03-22T12:01:51.666Z,10.95
2023-03-22T12:04:23.797Z,10.23
2023-03-22T12:06:53.921Z,8.25
2023-03-22T12:09:32.767Z,7.03
2023-03-22T12:12:02.076Z,6.57
2023-03-22T12:14:52.899Z,6.45
2023-03-22T12:17:36.833Z,5.07
2023-03-22T12:20:16.652Z,4.35
2023-03-22T12:22:51.374Z,7.97
2023-03-22T12:25:25.906Z,10.20
2023-03-22T12:28:14.963Z,7.45
2023-03-22T12:30:49.339Z,5.15
2023-03-22T12:33:20.783Z,6.32
2023-03-22T12:35:51.703Z,8.63
2023-03-22T12:38:37.924Z,7.10
2023-03-22T12:41:08.550Z,5.95
2023-03-22T12:43:43.081Z,4.88
2023-03-22T12:46:17.840Z,3.88
2023-03-22T12:49:16.571Z,3.72
2023-03-22T12:51:44.108Z,3.55
2023-03-22T12:54:14.442Z,4.63
2023-03-22T12:56:44.096Z,4.38
2023-03-22T12:59:19.039Z,3.80
2023-03-22T13:01:52.266Z,4.15
2023-03-22T13:04:32.085Z,3.20
2023-03-22T13:07:08.815Z,3.75
2023-03-22T13:09:45.438Z,3.70
2023-03-22T13:12:16.466Z,3.83
2023-03-22T13:14:53.140Z,4.22
2023-03-22T13:17:23.338Z,3.35
2023-03-22T13:22:43.251Z,7.22
2023-03-22T13:25:12.846Z,4.53
2023-03-22T13:27:46.224Z,6.68
2023-03-22T13:30:24.877Z,5.15
2023-03-22T13:32:56.624Z,5.43
2023-03-22T13:35:28.472Z,4.90
2023-03-22T13:38:07.721Z,4.70
2023-03-22T13:40:43.390Z,4.05
2023-03-22T13:43:13.752Z,4.45
2023-03-22T13:46:11.811Z,5.28
2023-03-22T13:48:48.826Z,8.13
2023-03-22T13:51:16.738Z,7.03
2023-03-22T13:53:58.007Z,6.97
2023-03-22T13:56:36.976Z,7.30
2023-03-22T13:59:05.051Z,5.22
2023-03-22T14:01:36.246Z,4.30
2023-03-22T14:04:10.788Z,3.75
2023-03-22T14:06:52.317Z,4.50
2023-03-22T14:09:28.824Z,4.28
2023-03-22T14:12:04.150Z,4.70
2023-03-22T14:14:40.568Z,4.35
2023-03-22T14:17:11.871Z,3.80
2023-03-22T14:19:41.176Z,3.80
